Time;durP1;ratioP1;P1;durP2;ratioP2;P2;SDS_P1;SDS_P2;PMS_P1;PMS_P2;Temp;Humidity;BMP_temperature;BMP_pressure;BME280_temperature;BME280_humidity;BME280_pressure;Samples;Min_cycle;Max_cycle;Signal;HPM_P1;HPM_P2
2023/01/10 00:01:31;;;;;;;16.40;4.10;;;5.40;99.90;;;;;;4986933;28;20042;-48
2023/01/10 00:03:56;;;;;;;13.43;3.70;;;5.30;99.90;;;;;;4982241;28;20045;-49
2023/01/10 00:06:22;;;;;;;13.20;3.30;;;5.30;99.90;;;;;;4990587;28;20093;-48
2023/01/10 00:08:48;;;;;;;18.20;3.70;;;5.30;99.90;;;;;;4990116;28;20050;-48
2023/01/10 00:13:58;;;;;;;16.65;3.60;;;5.10;99.90;;;;;;4988378;28;20133;-48
2023/01/10 00:16:24;;;;;;;11.05;3.72;;;5.10;99.90;;;;;;4987308;28;20418;-48
2023/01/10 00:18:49;;;;;;;16.77;4.30;;;5.00;99.90;;;;;;4990555;28;20061;-49
2023/01/10 00:21:15;;;;;;;16.48;4.03;;;4.90;99.90;;;;;;4980373;28;20050;-47
2023/01/10 00:23:42;;;;;;;16.30;4.28;;;4.90;99.90;;;;;;4983803;28;20074;-48
2023/01/10 00:26:08;;;;;;;14.05;3.88;;;4.90;99.90;;;;;;4992783;28;20070;-47
2023/01/10 00:28:34;;;;;;;19.60;4.55;;;4.80;99.90;;;;;;4983098;28;20461;-48
2023/01/10 00:31:03;;;;;;;15.20;4.65;;;4.80;99.90;;;;;;4985518;28;20147;-52
2023/01/10 00:33:33;;;;;;;18.60;4.60;;;4.80;99.90;;;;;;4984673;28;20038;-49
2023/01/10 00:36:03;;;;;;;19.08;3.92;;;4.80;99.90;;;;;;4979375;28;20370;-51
2023/01/10 00:38:32;;;;;;;23.60;5.30;;;4.80;99.90;;;;;;4981289;28;20061;-52
2023/01/10 00:40:58;;;;;;;23.73;4.57;;;4.90;99.90;;;;;;4979527;28;20050;-48
2023/01/10 00:46:09;;;;;;;23.08;4.90;;;5.00;99.90;;;;;;4985761;28;20093;-52
2023/01/10 00:48:35;;;;;;;18.88;4.82;;;5.00;99.90;;;;;;4984753;28;20043;-48
2023/01/10 00:51:01;;;;;;;19.73;4.90;;;5.00;99.90;;;;;;4984258;28;20132;-50
2023/01/10 00:53:26;;;;;;;18.13;4.30;;;5.00;99.90;;;;;;4983570;28;20057;-48
2023/01/10 00:55:53;;;;;;;21.58;4.85;;;5.00;99.90;;;;;;4988551;28;20049;-50
2023/01/10 00:58:20;;;;;;;21.45;4.57;;;5.00;99.90;;;;;;4982815;28;20422;-48
2023/01/10 01:00:45;;;;;;;17.60;4.88;;;5.10;99.90;;;;;;4986910;28;20112;-51
2023/01/10 01:03:12;;;;;;;22.67;4.88;;;5.10;99.90;;;;;;4989977;28;20046;-50
2023/01/10 01:05:45;;;;;;;22.15;4.65;;;5.10;99.90;;;;;;4985596;28;20121;-50
2023/01/10 01:08:12;;;;;;;20.73;4.80;;;5.20;99.90;;;;;;4983024;28;20413;-49
2023/01/10 01:10:37;;;;;;;16.02;4.45;;;5.20;99.90;;;;;;4984421;28;20038;-48
2023/01/10 01:13:09;;;;;;;18.55;4.32;;;5.20;99.90;;;;;;4985291;28;20050;-48
2023/01/10 01:15:35;;;;;;;26.08;4.72;;;5.30;99.90;;;;;;4984061;28;20046;-49
2023/01/10 01:18:02;;;;;;;18.48;4.32;;;5.20;99.90;;;;;;4985473;28;20452;-50
2023/01/10 01:20:28;;;;;;;25.70;4.65;;;5.30;99.90;;;;;;4998917;28;20038;-51
2023/01/10 01:22:53;;;;;;;22.02;4.70;;;5.30;99.90;;;;;;4984686;28;20481;-48
2023/01/10 01:25:19;;;;;;;19.17;4.40;;;5.30;99.90;;;;;;4991580;28;20041;-49
2023/01/10 01:27:45;;;;;;;15.45;3.83;;;5.30;99.90;;;;;;4983625;28;20046;-50
2023/01/10 01:30:12;;;;;;;14.02;3.80;;;5.30;99.90;;;;;;4986124;28;20073;-50
2023/01/10 01:32:38;;;;;;;17.20;4.25;;;5.30;99.90;;;;;;4982046;28;20054;-49
2023/01/10 01:35:05;;;;;;;15.52;3.95;;;5.20;99.90;;;;;;4982851;28;21008;-48
2023/01/10 01:37:32;;;;;;;17.05;3.95;;;5.20;99.90;;;;;;4985074;28;20127;-48
2023/01/10 01:39:58;;;;;;;17.67;3.70;;;5.20;99.90;;;;;;4981823;28;20062;-48
2023/01/10 01:42:25;;;;;;;15.50;4.13;;;5.30;99.90;;;;;;4984217;28;20777;-48
2023/01/10 01:45:27;;;;;;;14.88;3.75;;;5.20;99.90;;;;;;4984939;28;20101;-51
2023/01/10 01:47:57;;;;;;;17.58;4.28;;;5.20;99.90;;;;;;4983188;28;20109;-49
2023/01/10 01:50:39;;;;;;;17.92;4.20;;;5.20;99.90;;;;;;4979896;28;20046;-48
2023/01/10 01:53:33;;;;;;;15.90;3.60;;;5.20;99.90;;;;;;4982898;28;20870;-53
2023/01/10 01:56:15;;;;;;;19.05;4.35;;;5.20;99.90;;;;;;4975780;28;20054;-50
2023/01/10 01:58:44;;;;;;;22.00;4.35;;;5.10;99.90;;;;;;4988083;28;20046;-51
2023/01/10 02:01:11;;;;;;;19.13;4.20;;;5.00;99.90;;;;;;4982994;28;20046;-48
2023/01/10 02:03:39;;;;;;;22.05;4.32;;;5.00;99.90;;;;;;4989173;28;20108;-48
2023/01/10 02:06:05;;;;;;;13.43;3.53;;;5.00;99.90;;;;;;4990406;28;20042;-48
2023/01/10 02:08:32;;;;;;;12.98;3.92;;;5.00;99.90;;;;;;4989616;28;20489;-50
2023/01/10 02:11:07;;;;;;;19.88;4.20;;;5.10;99.90;;;;;;4993218;28;20430;-48
2023/01/10 02:13:37;;;;;;;20.75;4.13;;;5.00;99.90;;;;;;4982427;28;20113;-48
2023/01/10 02:16:03;;;;;;;18.70;4.25;;;5.00;99.90;;;;;;4988428;28;20034;-49
2023/01/10 02:18:29;;;;;;;16.58;4.35;;;5.00;99.90;;;;;;4985080;28;20125;-48
2023/01/10 02:21:08;;;;;;;18.48;4.30;;;5.00;99.90;;;;;;4985164;28;20098;-49
2023/01/10 02:23:48;;;;;;;19.08;4.07;;;4.90;99.90;;;;;;4975372;28;20043;-48
2023/01/10 02:26:59;;;;;;;20.15;4.18;;;4.90;99.90;;;;;;4979262;28;20137;-50
2023/01/10 02:30:04;;;;;;;16.23;4.28;;;4.90;99.90;;;;;;4979382;28;20054;-48
2023/01/10 02:32:45;;;;;;;14.73;3.92;;;4.80;99.90;;;;;;4985863;28;20493;-48
2023/01/10 02:35:34;;;;;;;16.75;3.45;;;4.80;99.90;;;;;;4981345;28;20046;-48
2023/01/10 02:38:13;;;;;;;15.15;3.97;;;4.70;99.90;;;;;;4985317;28;20045;-48
2023/01/10 02:40:46;;;;;;;16.65;3.78;;;4.60;99.90;;;;;;4983916;28;20070;-49
2023/01/10 02:43:17;;;;;;;20.38;3.67;;;4.50;99.90;;;;;;4984436;28;20058;-48
2023/01/10 02:46:02;;;;;;;18.23;3.65;;;4.50;99.90;;;;;;4983330;28;20081;-48
2023/01/10 02:48:27;;;;;;;17.73;4.13;;;4.40;99.90;;;;;;4981752;28;20050;-51
2023/01/10 02:51:10;;;;;;;19.48;3.72;;;4.40;99.90;;;;;;4981749;28;20053;-48
2023/01/10 02:53:52;;;;;;;18.45;3.97;;;4.40;99.90;;;;;;4980381;28;20046;-48
2023/01/10 02:56:47;;;;;;;16.70;4.07;;;4.40;99.90;;;;;;4981267;28;20050;-48
2023/01/10 02:59:37;;;;;;;20.80;4.07;;;4.30;99.90;;;;;;4982022;28;20215;-48
2023/01/10 03:02:28;;;;;;;18.00;4.03;;;4.30;99.90;;;;;;4983409;28;20046;-48
2023/01/10 03:05:16;;;;;;;16.15;3.70;;;4.30;99.90;;;;;;4981684;28;20465;-49
2023/01/10 03:08:09;;;;;;;21.55;4.25;;;4.30;99.90;;;;;;4982014;28;20115;-48
2023/01/10 03:10:43;;;;;;;13.57;3.40;;;4.30;99.90;;;;;;4981648;28;20043;-49
2023/01/10 03:13:13;;;;;;;23.42;3.97;;;4.20;99.90;;;;;;4980644;28;20125;-48
2023/01/10 03:15:40;;;;;;;19.55;4.22;;;4.20;99.90;;;;;;4981202;28;21277;-51
2023/01/10 03:18:14;;;;;;;20.70;4.43;;;4.20;99.90;;;;;;4980485;28;20046;-48
2023/01/10 03:20:44;;;;;;;20.33;4.22;;;4.20;99.90;;;;;;4980680;28;20030;-48
2023/01/10 03:23:12;;;;;;;21.77;3.75;;;4.30;99.90;;;;;;4984110;28;20486;-49
2023/01/10 03:25:41;;;;;;;18.55;3.88;;;4.40;99.90;;;;;;4980695;28;20165;-48
2023/01/10 03:28:28;;;;;;;21.58;4.30;;;4.50;99.90;;;;;;4976623;28;20046;-48
2023/01/10 03:31:08;;;;;;;16.60;4.43;;;4.60;99.90;;;;;;4979173;28;20116;-48
2023/01/10 03:33:35;;;;;;;24.17;4.03;;;4.70;99.90;;;;;;4984156;28;20039;-48
2023/01/10 03:36:21;;;;;;;20.40;3.50;;;4.70;99.90;;;;;;4982624;28;20039;-49
2023/01/10 03:39:08;;;;;;;23.08;3.88;;;4.80;99.90;;;;;;4982003;28;20054;-48
2023/01/10 03:41:43;;;;;;;15.20;2.83;;;4.90;99.90;;;;;;4980512;28;20038;-48
2023/01/10 03:47:09;;;;;;;21.40;3.75;;;4.90;99.90;;;;;;4982603;28;20076;-48
2023/01/10 03:49:39;;;;;;;14.73;3.22;;;5.00;99.90;;;;;;4980835;28;20516;-48
2023/01/10 03:52:08;;;;;;;21.10;3.78;;;5.00;99.90;;;;;;4980515;28;20038;-49
2023/01/10 03:54:34;;;;;;;17.33;3.67;;;5.00;99.90;;;;;;4981409;28;20137;-48
2023/01/10 03:56:59;;;;;;;18.15;4.15;;;5.00;99.90;;;;;;4981716;28;20077;-48
2023/01/10 03:59:26;;;;;;;12.77;3.35;;;5.00;99.90;;;;;;4985153;28;20120;-50
2023/01/10 04:01:54;;;;;;;23.10;4.57;;;4.90;99.90;;;;;;4990359;28;20042;-48
2023/01/10 04:04:20;;;;;;;13.90;3.30;;;4.80;99.90;;;;;;4989300;28;20038;-48
2023/01/10 04:06:46;;;;;;;17.70;4.20;;;4.80;99.90;;;;;;4990120;28;20059;-48
2023/01/10 04:09:12;;;;;;;17.38;3.47;;;4.70;99.90;;;;;;4990945;28;20042;-48
2023/01/10 04:11:38;;;;;;;19.15;3.53;;;4.90;99.90;;;;;;4989425;28;20038;-48
2023/01/10 04:14:04;;;;;;;20.65;3.55;;;4.90;99.90;;;;;;4989228;28;20429;-49
2023/01/10 04:16:30;;;;;;;13.57;3.25;;;4.90;99.90;;;;;;4986593;28;20050;-49
2023/01/10 04:18:55;;;;;;;17.17;3.60;;;4.90;99.90;;;;;;4988381;28;20049;-49
2023/01/10 04:21:21;;;;;;;16.67;3.10;;;4.90;99.90;;;;;;4973649;28;20061;-49
2023/01/10 04:23:47;;;;;;;18.10;4.03;;;4.90;99.90;;;;;;4990280;28;20039;-51
2023/01/10 04:26:12;;;;;;;17.92;3.92;;;5.00;99.90;;;;;;4990642;28;20069;-49
2023/01/10 04:28:38;;;;;;;22.60;4.13;;;5.00;99.90;;;;;;4991455;28;20366;-48
2023/01/10 04:31:04;;;;;;;22.23;4.20;;;5.10;99.90;;;;;;4985943;28;20118;-49
2023/01/10 04:33:29;;;;;;;19.15;3.35;;;5.10;99.90;;;;;;4987145;28;20042;-48
2023/01/10 04:35:55;;;;;;;23.98;4.38;;;5.10;99.90;;;;;;4983668;28;20081;-51
2023/01/10 04:38:21;;;;;;;23.05;4.13;;;5.10;99.90;;;;;;4995456;28;20038;-51
2023/01/10 04:40:54;;;;;;;27.83;4.65;;;5.10;99.90;;;;;;4993056;28;20089;-50
2023/01/10 04:43:20;;;;;;;17.80;4.30;;;5.20;99.90;;;;;;4994173;28;20054;-49
2023/01/10 04:45:46;;;;;;;18.65;4.55;;;5.20;99.90;;;;;;4991432;28;20516;-50
2023/01/10 04:48:12;;;;;;;23.10;4.65;;;5.20;99.90;;;;;;4990545;28;21468;-50
2023/01/10 04:50:37;;;;;;;21.63;4.90;;;5.10;99.90;;;;;;4992812;28;20043;-49
2023/01/10 04:53:03;;;;;;;15.38;4.07;;;5.10;99.90;;;;;;4990932;28;20126;-48
2023/01/10 04:55:30;;;;;;;20.25;4.30;;;5.10;99.90;;;;;;4991231;28;20035;-49
2023/01/10 04:57:55;;;;;;;26.33;4.38;;;5.10;99.90;;;;;;4990804;28;20077;-49
2023/01/10 05:00:21;;;;;;;25.75;4.60;;;5.10;99.90;;;;;;4989477;28;20038;-51
2023/01/10 05:02:47;;;;;;;16.30;4.30;;;5.00;99.90;;;;;;4989574;28;20547;-48
2023/01/10 05:05:13;;;;;;;17.98;4.07;;;5.00;99.90;;;;;;4994463;28;20497;-49
2023/01/10 05:07:39;;;;;;;23.13;4.43;;;5.00;99.90;;;;;;4991377;28;20034;-49
2023/01/10 05:10:07;;;;;;;20.20;4.25;;;5.00;99.90;;;;;;4991699;28;20513;-48
2023/01/10 05:12:32;;;;;;;27.17;4.75;;;5.10;99.90;;;;;;4990553;28;20054;-48
2023/01/10 05:14:58;;;;;;;20.17;4.05;;;5.10;99.90;;;;;;4990068;28;20046;-49
2023/01/10 05:17:24;;;;;;;21.25;4.20;;;5.10;99.90;;;;;;4991388;28;20042;-48
2023/01/10 05:19:49;;;;;;;19.55;4.30;;;5.10;99.90;;;;;;4993909;28;20313;-48
2023/01/10 05:22:15;;;;;;;20.88;4.20;;;5.10;99.90;;;;;;4989237;28;20058;-48
2023/01/10 05:24:41;;;;;;;19.02;4.50;;;5.10;99.90;;;;;;4989873;28;20117;-49
2023/01/10 05:27:06;;;;;;;22.77;4.22;;;5.10;99.90;;;;;;4984170;28;20125;-48
2023/01/10 05:29:33;;;;;;;18.80;4.60;;;5.10;99.90;;;;;;4991712;28;20374;-50
2023/01/10 05:31:58;;;;;;;21.55;4.13;;;5.20;99.90;;;;;;4990060;28;20145;-49
2023/01/10 05:34:24;;;;;;;24.80;4.25;;;5.20;99.90;;;;;;4980424;28;20126;-49
2023/01/10 05:36:50;;;;;;;21.55;4.38;;;5.20;99.90;;;;;;4989558;28;20077;-48
2023/01/10 05:39:15;;;;;;;24.02;5.22;;;5.20;99.90;;;;;;4992294;28;20046;-52
2023/01/10 05:41:41;;;;;;;19.00;4.10;;;5.20;99.90;;;;;;4990408;28;20050;-48
2023/01/10 05:44:07;;;;;;;19.50;4.32;;;5.20;99.90;;;;;;4989481;28;20158;-48
2023/01/10 05:46:32;;;;;;;30.08;4.97;;;5.20;99.90;;;;;;4989403;28;20462;-49
2023/01/10 05:48:58;;;;;;;24.90;4.68;;;5.20;99.90;;;;;;4992324;28;20445;-49
2023/01/10 05:51:24;;;;;;;22.08;4.72;;;5.20;99.90;;;;;;4992742;28;20088;-48
2023/01/10 05:53:50;;;;;;;25.20;4.15;;;5.20;99.90;;;;;;4989568;28;20030;-52
2023/01/10 05:56:15;;;;;;;23.08;4.10;;;5.20;99.90;;;;;;4986187;28;20045;-49
2023/01/10 05:58:41;;;;;;;24.90;4.07;;;5.30;99.90;;;;;;4986701;28;20408;-50
2023/01/10 06:01:07;;;;;;;17.35;4.07;;;5.20;99.90;;;;;;4988629;28;20095;-49
2023/01/10 06:03:32;;;;;;;16.75;3.60;;;5.30;99.90;;;;;;4986140;28;20038;-49
2023/01/10 06:05:58;;;;;;;19.70;4.22;;;5.30;99.90;;;;;;4991607;28;20057;-48
2023/01/10 06:08:24;;;;;;;23.15;4.55;;;5.50;99.90;;;;;;4988096;28;20034;-48
2023/01/10 06:10:52;;;;;;;18.95;3.78;;;5.40;99.90;;;;;;4988843;28;20113;-50
2023/01/10 06:13:18;;;;;;;21.67;4.80;;;5.40;99.90;;;;;;4990519;28;20058;-49
2023/01/10 06:15:44;;;;;;;20.88;4.78;;;5.40;99.90;;;;;;4992854;28;20070;-48
2023/01/10 06:18:09;;;;;;;19.85;4.72;;;5.30;99.90;;;;;;4982621;28;20129;-48
2023/01/10 06:20:35;;;;;;;15.20;4.35;;;5.30;99.90;;;;;;4992693;28;20046;-48
2023/01/10 06:23:03;;;;;;;24.75;4.10;;;5.30;99.90;;;;;;4992149;28;20034;-48
2023/01/10 06:25:34;;;;;;;16.23;4.07;;;5.20;99.90;;;;;;4994315;28;20046;-48
2023/01/10 06:28:00;;;;;;;19.95;4.93;;;5.10;99.90;;;;;;4982835;28;20563;-48
2023/01/10 06:30:26;;;;;;;19.20;4.30;;;5.00;99.90;;;;;;4983168;28;20030;-50
2023/01/10 06:32:51;;;;;;;26.92;5.15;;;5.00;99.90;;;;;;4980703;28;20394;-47
2023/01/10 06:35:17;;;;;;;23.25;4.78;;;5.00;99.90;;;;;;4983248;28;20038;-52
2023/01/10 06:37:43;;;;;;;21.50;4.20;;;5.00;99.90;;;;;;4981540;28;20053;-49
2023/01/10 06:40:09;;;;;;;16.52;4.60;;;4.90;99.90;;;;;;4980952;28;20034;-49
2023/01/10 06:42:35;;;;;;;21.75;4.45;;;4.90;99.90;;;;;;4982230;28;20046;-49
2023/01/10 06:45:00;;;;;;;27.70;5.07;;;4.90;99.90;;;;;;4982628;28;20049;-50
2023/01/10 06:47:26;;;;;;;20.85;4.88;;;4.90;99.90;;;;;;4979148;28;20650;-48
2023/01/10 06:49:52;;;;;;;20.70;4.95;;;4.90;99.90;;;;;;4982308;28;20045;-49
2023/01/10 06:52:18;;;;;;;20.05;5.00;;;4.90;99.90;;;;;;4979659;28;20054;-48
2023/01/10 06:54:43;;;;;;;21.83;4.63;;;5.00;99.90;;;;;;4982329;28;20054;-53
2023/01/10 06:57:09;;;;;;;24.88;4.65;;;5.00;99.90;;;;;;4981116;28;20039;-48
2023/01/10 06:59:35;;;;;;;21.08;4.75;;;5.00;99.90;;;;;;4984156;28;20473;-48
2023/01/10 07:02:00;;;;;;;25.67;5.57;;;5.00;99.90;;;;;;4980458;28;20069;-48
2023/01/10 07:04:26;;;;;;;22.73;5.03;;;4.90;99.90;;;;;;4981427;28;20045;-48
2023/01/10 07:06:53;;;;;;;25.00;5.10;;;4.90;99.90;;;;;;4978173;28;21971;-48
2023/01/10 07:09:19;;;;;;;23.08;5.40;;;4.80;99.90;;;;;;4982814;28;20049;-52
2023/01/10 07:11:44;;;;;;;23.10;5.38;;;4.80;99.90;;;;;;4981412;28;20050;-51
2023/01/10 07:14:10;;;;;;;23.67;5.55;;;4.80;99.90;;;;;;4989579;28;20446;-49
2023/01/10 07:16:36;;;;;;;32.40;5.80;;;4.90;99.90;;;;;;4986863;28;20050;-48
2023/01/10 07:19:01;;;;;;;23.00;5.93;;;4.90;99.90;;;;;;4969990;28;20039;-48
2023/01/10 07:21:27;;;;;;;26.02;6.25;;;5.00;99.90;;;;;;4985344;28;20460;-49
2023/01/10 07:23:53;;;;;;;27.60;6.30;;;5.00;99.90;;;;;;4984891;28;20496;-49
2023/01/10 07:26:19;;;;;;;26.85;5.25;;;5.10;99.90;;;;;;4982804;28;20034;-49
2023/01/10 07:28:51;;;;;;;23.88;5.40;;;5.10;99.90;;;;;;4986015;28;20042;-47
2023/01/10 07:31:18;;;;;;;22.42;5.45;;;5.10;99.90;;;;;;4986749;28;20500;-48
2023/01/10 07:33:44;;;;;;;23.10;6.03;;;5.10;99.90;;;;;;4990845;28;20038;-48
2023/01/10 07:36:10;;;;;;;26.05;5.63;;;5.10;99.90;;;;;;4990151;28;20049;-47
2023/01/10 07:38:37;;;;;;;24.52;5.82;;;5.00;99.90;;;;;;4991250;28;20038;-50
2023/01/10 07:41:03;;;;;;;27.60;6.20;;;5.00;99.90;;;;;;4977365;28;20501;-48
2023/01/10 07:43:30;;;;;;;28.00;5.75;;;4.90;99.90;;;;;;4991186;28;20046;-48
2023/01/10 07:46:00;;;;;;;24.20;5.53;;;4.90;99.90;;;;;;4992553;28;20046;-48
2023/01/10 07:48:26;;;;;;;30.13;6.45;;;4.90;99.90;;;;;;4990158;28;20053;-51
2023/01/10 07:50:56;;;;;;;27.15;5.53;;;4.90;99.90;;;;;;4990483;28;20108;-48
2023/01/10 07:53:22;;;;;;;35.08;6.32;;;4.90;99.90;;;;;;4991149;28;20038;-48
2023/01/10 07:55:48;;;;;;;33.45;6.00;;;4.80;99.90;;;;;;4991570;28;20058;-48
2023/01/10 07:58:13;;;;;;;31.40;5.68;;;4.80;99.90;;;;;;4985727;28;20057;-50
2023/01/10 08:00:39;;;;;;;28.42;5.95;;;4.80;99.90;;;;;;4977971;28;20671;-51
2023/01/10 08:03:05;;;;;;;34.00;6.65;;;4.80;99.90;;;;;;4976932;28;20039;-49
2023/01/10 08:05:31;;;;;;;31.00;6.05;;;4.70;99.90;;;;;;4986704;28;20481;-52
2023/01/10 08:08:02;;;;;;;32.67;6.10;;;4.80;99.90;;;;;;4981643;28;20050;-48
2023/01/10 08:10:27;;;;;;;24.20;5.65;;;4.70;99.90;;;;;;4988093;28;20097;-50
2023/01/10 08:12:53;;;;;;;34.85;5.88;;;4.70;99.90;;;;;;4986105;28;20046;-51
2023/01/10 08:15:19;;;;;;;36.78;6.28;;;4.70;99.90;;;;;;4982819;28;20046;-49
2023/01/10 08:17:45;;;;;;;33.45;6.15;;;4.70;99.90;;;;;;4981025;28;20552;-48
2023/01/10 08:20:11;;;;;;;29.40;5.93;;;4.70;99.90;;;;;;4982160;28;20038;-52
2023/01/10 08:22:36;;;;;;;28.50;6.00;;;4.80;99.90;;;;;;4980889;28;20085;-48
2023/01/10 08:25:02;;;;;;;35.08;6.00;;;4.80;99.90;;;;;;4982953;28;20039;-50
2023/01/10 08:27:28;;;;;;;27.42;5.88;;;4.80;99.90;;;;;;4984501;28;20053;-50
2023/01/10 08:29:53;;;;;;;29.33;5.53;;;4.80;99.90;;;;;;4986434;28;20046;-48
2023/01/10 08:32:19;;;;;;;30.13;6.40;;;4.80;99.90;;;;;;4980878;28;20654;-48
2023/01/10 08:34:44;;;;;;;26.27;5.50;;;4.80;99.90;;;;;;4986532;28;20045;-49
2023/01/10 08:37:13;;;;;;;33.55;6.40;;;5.00;99.90;;;;;;4989764;28;20155;-51
2023/01/10 08:39:39;;;;;;;30.48;6.00;;;5.00;99.90;;;;;;4990337;28;20045;-50
2023/01/10 08:42:05;;;;;;;34.13;6.60;;;5.20;99.90;;;;;;4987810;28;20047;-51
2023/01/10 08:44:30;;;;;;;22.70;6.07;;;5.20;99.90;;;;;;4983943;28;20042;-51
2023/01/10 08:46:56;;;;;;;27.33;5.50;;;5.40;99.90;;;;;;4985406;28;20117;-49
2023/01/10 08:49:22;;;;;;;26.85;6.43;;;5.40;99.90;;;;;;4979424;28;20035;-51
2023/01/10 08:51:48;;;;;;;28.08;6.15;;;5.50;99.90;;;;;;4986705;28;20038;-49
2023/01/10 08:54:13;;;;;;;29.92;6.13;;;5.60;99.90;;;;;;4984734;28;20122;-51
2023/01/10 08:56:39;;;;;;;25.88;6.35;;;;;;;;;;4983892;28;20034;-49
2023/01/10 08:59:06;;;;;;;28.75;6.40;;;5.70;99.90;;;;;;4981925;28;20052;-48
2023/01/10 09:01:32;;;;;;;33.80;6.65;;;5.80;99.90;;;;;;4984539;28;20046;-48
2023/01/10 09:03:58;;;;;;;30.10;6.03;;;5.80;99.90;;;;;;4978612;28;22251;-48
2023/01/10 09:06:24;;;;;;;32.50;6.38;;;5.90;99.90;;;;;;4985914;28;20065;-49
2023/01/10 09:08:49;;;;;;;26.38;6.95;;;5.90;99.90;;;;;;4984962;28;20039;-53
2023/01/10 09:11:15;;;;;;;31.48;6.85;;;5.90;99.90;;;;;;4987460;28;20046;-51
2023/01/10 09:13:41;;;;;;;28.15;6.70;;;6.00;99.90;;;;;;4985379;28;20051;-50
2023/01/10 09:16:07;;;;;;;27.67;5.93;;;6.00;99.90;;;;;;4983862;28;20485;-48
2023/01/10 09:18:33;;;;;;;29.67;7.60;;;6.00;99.90;;;;;;4988220;28;20034;-49
2023/01/10 09:20:59;;;;;;;32.83;6.95;;;6.10;99.90;;;;;;4986968;28;20049;-48
2023/01/10 09:23:25;;;;;;;37.50;7.40;;;6.10;99.90;;;;;;4986200;28;20122;-51
2023/01/10 09:25:53;;;;;;;34.25;9.60;;;6.10;99.90;;;;;;4985217;28;20043;-50
2023/01/10 09:28:23;;;;;;;35.58;9.13;;;6.20;99.90;;;;;;4994508;28;20441;-48
2023/01/10 09:30:49;;;;;;;27.88;8.13;;;6.20;99.90;;;;;;4996793;28;20042;-48
2023/01/10 09:33:15;;;;;;;27.45;8.60;;;6.20;99.90;;;;;;4995124;28;20161;-48
2023/01/10 09:35:41;;;;;;;28.42;8.32;;;6.30;99.90;;;;;;4996031;28;20081;-49
2023/01/10 09:38:11;;;;;;;32.67;8.32;;;6.40;99.90;;;;;;4995751;28;20042;-49
2023/01/10 09:41:05;;;;;;;28.95;8.45;;;6.40;99.90;;;;;;4995125;28;20110;-51
2023/01/10 09:43:57;;;;;;;34.10;9.15;;;6.40;99.90;;;;;;4994172;28;20049;-48
2023/01/10 09:46:46;;;;;;;25.13;7.53;;;6.60;99.90;;;;;;4995492;28;20477;-50
2023/01/10 09:49:20;;;;;;;32.33;8.52;;;6.60;99.90;;;;;;4995689;28;20121;-48
2023/01/10 09:51:49;;;;;;;28.25;8.45;;;6.60;99.90;;;;;;4995743;28;20405;-49
2023/01/10 09:54:26;;;;;;;25.20;7.55;;;6.70;99.90;;;;;;4989605;28;20042;-51
2023/01/10 09:56:54;;;;;;;26.25;8.10;;;6.80;99.90;;;;;;4988172;28;20039;-50
2023/01/10 09:59:24;;;;;;;34.47;8.80;;;6.80;99.90;;;;;;4988598;28;20069;-49
2023/01/10 10:02:12;;;;;;;32.60;8.82;;;6.80;99.90;;;;;;4993371;28;20851;-50
2023/01/10 10:04:39;;;;;;;28.88;8.43;;;6.80;99.90;;;;;;4993564;28;20042;-52
2023/01/10 10:07:11;;;;;;;26.30;7.82;;;;;;;;;;4992443;28;20054;-48
2023/01/10 10:09:36;;;;;;;27.27;8.27;;;6.80;99.90;;;;;;4988781;28;20408;-48
2023/01/10 10:12:25;;;;;;;31.83;8.27;;;6.90;99.90;;;;;;4983095;28;20038;-48
2023/01/10 10:14:53;;;;;;;32.80;7.68;;;6.90;99.90;;;;;;4985668;28;20105;-48
2023/01/10 10:17:31;;;;;;;27.92;8.23;;;7.00;99.90;;;;;;4993697;28;20465;-48
2023/01/10 10:20:31;;;;;;;33.97;10.23;;;7.00;99.90;;;;;;4994054;28;20046;-48
2023/01/10 10:23:24;;;;;;;29.45;8.55;;;7.10;99.90;;;;;;4987961;28;20065;-49
2023/01/10 10:26:28;;;;;;;29.98;8.18;;;7.10;99.90;;;;;;4982006;28;20049;-48
2023/01/10 10:29:26;;;;;;;29.00;7.88;;;7.20;99.90;;;;;;4950646;29;20442;-48
2023/01/10 10:31:54;;;;;;;24.52;7.40;;;7.10;99.90;;;;;;4934505;29;20145;-50
2023/01/10 10:34:37;;;;;;;24.92;6.88;;;7.20;99.90;;;;;;4934484;29;20530;-48
2023/01/10 10:37:10;;;;;;;30.95;8.13;;;7.10;99.90;;;;;;4934728;29;20055;-49
2023/01/10 10:39:46;;;;;;;30.95;8.02;;;7.20;99.90;;;;;;4933525;29;20055;-50
2023/01/10 10:42:15;;;;;;;30.75;7.72;;;7.10;99.90;;;;;;4944080;29;20047;-50
2023/01/10 10:44:50;;;;;;;32.67;8.35;;;7.20;99.90;;;;;;4953724;29;20047;-52
2023/01/10 10:47:19;;;;;;;24.52;7.03;;;7.20;99.90;;;;;;4953621;28;20094;-49
2023/01/10 10:49:56;;;;;;;28.95;7.50;;;;;;;;;;4937508;29;20059;-49
2023/01/10 10:52:25;;;;;;;27.50;7.32;;;;;;;;;;4933639;29;20047;-50
2023/01/10 10:54:52;;;;;;;32.30;7.13;;;;;;;;;;4934331;29;20395;-51
2023/01/10 10:57:18;;;;;;;29.15;6.57;;;;;;;;;;4917786;29;20457;-49
2023/01/10 10:59:47;;;;;;;30.90;7.07;;;;;;;;;;4936293;29;20054;-50
2023/01/10 11:02:24;;;;;;;26.40;6.00;;;;;;;;;;4949619;28;20827;-50
2023/01/10 11:04:52;;;;;;;26.42;6.18;;;;;;;;;;4987102;28;20056;-49
2023/01/10 11:07:19;;;;;;;23.60;5.43;;;;;;;;;;4985218;28;20038;-49
2023/01/10 11:10:13;;;;;;;28.45;6.15;;;;;;;;;;4986158;28;20053;-50
2023/01/10 11:12:44;;;;;;;22.10;5.63;;;;;;;;;;4988392;28;20062;-50
2023/01/10 11:15:11;;;;;;;20.77;5.63;;;;;;;;;;4988116;28;20081;-48
2023/01/10 11:17:40;;;;;;;22.00;5.05;;;;;;;;;;4994031;28;20050;-48
2023/01/10 11:20:13;;;;;;;24.70;5.57;;;;;;;;;;4991081;28;20193;-48
2023/01/10 11:22:44;;;;;;;27.00;5.97;;;;;;;;;;4984229;28;20046;-51
2023/01/10 11:25:15;;;;;;;22.65;5.20;;;;;;;;;;4993353;28;20049;-49
2023/01/10 11:28:00;;;;;;;23.05;5.72;;;;;;;;;;4992700;28;20049;-49
2023/01/10 11:30:27;;;;;;;28.42;5.82;;;;;;;;;;4983674;28;20046;-50
2023/01/10 11:32:58;;;;;;;24.58;6.20;;;;;;;;;;4986911;28;20432;-52
2023/01/10 11:35:34;;;;;;;19.33;5.32;;;7.20;99.90;;;;;;4984042;28;20042;-48
2023/01/10 11:38:28;;;;;;;21.52;5.60;;;7.20;99.90;;;;;;4982826;28;20045;-51
2023/01/10 11:41:23;;;;;;;25.85;5.47;;;7.20;99.90;;;;;;4984355;28;20057;-53
2023/01/10 11:43:50;;;;;;;25.80;5.82;;;7.10;99.90;;;;;;4985224;28;20457;-50
2023/01/10 11:46:24;;;;;;;25.30;6.50;;;7.10;99.90;;;;;;4985172;28;20047;-50
2023/01/10 11:48:59;;;;;;;22.92;5.05;;;7.20;99.90;;;;;;4977278;28;20085;-50
2023/01/10 11:51:28;;;;;;;23.73;5.65;;;7.10;99.90;;;;;;4990475;28;20150;-48
2023/01/10 11:54:05;;;;;;;27.92;6.13;;;7.10;99.90;;;;;;4993155;28;20547;-52
2023/01/10 11:56:33;;;;;;;20.33;5.93;;;7.20;99.90;;;;;;4990872;28;20089;-49
2023/01/10 11:59:11;;;;;;;26.08;5.65;;;7.10;99.90;;;;;;4990821;28;20038;-51
2023/01/10 12:02:22;;;;;;;21.85;5.50;;;7.10;99.90;;;;;;4986083;28;20050;-48
2023/01/10 12:04:49;;;;;;;28.55;6.25;;;7.10;99.90;;;;;;4931430;29;20146;-50
2023/01/10 12:07:17;;;;;;;26.85;6.38;;;7.10;99.90;;;;;;4928740;29;20063;-50
2023/01/10 12:09:44;;;;;;;;;;;7.00;99.90;;;;;;4933775;29;20446;-49
2023/01/10 12:12:26;;;;;;;19.85;5.05;;;7.00;99.90;;;;;;4928543;29;20034;-53
2023/01/10 12:14:53;;;;;;;26.50;5.70;;;7.00;99.90;;;;;;4932863;29;20043;-49
2023/01/10 12:17:37;;;;;;;27.05;5.40;;;7.00;99.90;;;;;;4930942;29;20040;-51
2023/01/10 12:20:11;;;;;;;21.00;5.45;;;7.00;99.90;;;;;;4932268;29;20051;-49
2023/01/10 12:22:43;;;;;;;23.83;5.20;;;6.90;99.90;;;;;;4929856;29;20477;-50
2023/01/10 12:25:31;;;;;;;25.38;4.85;;;6.90;99.90;;;;;;4925131;29;20178;-51
2023/01/10 12:27:59;;;;;;;22.02;5.18;;;6.90;99.90;;;;;;4925082;29;20088;-49
2023/01/10 12:30:52;;;;;;;24.73;5.13;;;6.90;99.90;;;;;;4931178;29;20091;-51
2023/01/10 12:33:40;;;;;;;23.20;4.88;;;6.80;99.90;;;;;;4903068;29;20048;-49
2023/01/10 12:36:08;;;;;;;18.58;5.90;;;6.90;99.90;;;;;;4922411;29;20047;-51
2023/01/10 12:44:23;;;;;;;25.00;5.35;;;6.80;99.90;;;;;;4992432;28;20054;-51
2023/01/10 12:47:25;;;;;;;25.15;4.97;;;6.80;99.90;;;;;;4998180;28;20064;-49
2023/01/10 12:50:12;;;;;;;25.73;6.30;;;6.90;99.90;;;;;;4990810;28;20038;-48
2023/01/10 12:52:57;;;;;;;25.60;6.00;;;6.90;99.90;;;;;;4988317;28;20034;-48
2023/01/10 12:55:28;;;;;;;27.00;4.97;;;6.90;99.90;;;;;;4991618;28;20054;-51
2023/01/10 12:57:59;;;;;;;24.20;5.55;;;6.90;99.90;;;;;;4977443;28;20042;-50
2023/01/10 13:00:38;;;;;;;24.35;6.07;;;6.90;99.90;;;;;;4990425;28;20046;-50
2023/01/10 13:03:11;;;;;;;29.13;6.25;;;6.90;99.90;;;;;;4992129;28;20404;-52
2023/01/10 13:05:37;;;;;;;25.02;6.10;;;6.90;99.90;;;;;;4992269;28;20373;-48
2023/01/10 13:08:10;;;;;;;26.60;6.15;;;6.90;99.90;;;;;;4994092;28;20049;-50
2023/01/10 13:10:41;;;;;;;27.33;5.88;;;7.00;99.90;;;;;;4987031;28;20125;-51
2023/01/10 13:13:17;;;;;;;35.10;6.22;;;6.90;99.90;;;;;;4994089;28;20065;-49
2023/01/10 13:16:21;;;;;;;28.17;5.72;;;6.90;99.90;;;;;;4989689;28;20034;-51
2023/01/10 13:19:10;;;;;;;25.63;5.93;;;6.90;99.90;;;;;;4988701;28;20042;-49
2023/01/10 13:21:38;;;;;;;21.85;5.43;;;6.90;99.90;;;;;;4990160;28;20057;-48
2023/01/10 13:24:23;;;;;;;21.27;5.47;;;6.80;99.90;;;;;;4993899;28;20054;-49
2023/01/10 13:26:58;;;;;;;19.30;5.10;;;6.90;99.90;;;;;;4993818;28;20121;-50